Time;durP1;ratioP1;P1;durP2;ratioP2;P2;SDS_P1;SDS_P2;PMS_P1;PMS_P2;Temp;Humidity;BMP_temperature;BMP_pressure;BME280_temperature;BME280_humidity;BME280_pressure;Samples;Min_cycle;Max_cycle;Signal;HPM_P1;HPM_P2
2021/12/01 00:00:55;;;;;;;39.22;23.55;;;9.00;99.90;;;;;;5082008;28;20104;-56
2021/12/01 00:03:21;;;;;;;48.70;25.77;;;9.00;99.90;;;;;;5080479;28;20040;-57
2021/12/01 00:05:47;;;;;;;41.42;24.90;;;9.00;99.90;;;;;;5077822;28;20458;-54
2021/12/01 00:08:13;;;;;;;40.53;25.70;;;9.00;99.90;;;;;;5080041;28;20074;-56
2021/12/01 00:10:40;;;;;;;38.58;24.70;;;9.00;99.90;;;;;;5085777;28;20051;-57
2021/12/01 00:13:09;;;;;;;45.50;25.67;;;9.00;99.90;;;;;;5082987;28;20438;-57
2021/12/01 00:15:36;;;;;;;45.72;27.77;;;9.00;99.90;;;;;;5086160;28;20139;-57
2021/12/01 00:18:02;;;;;;;43.90;27.92;;;9.00;99.90;;;;;;5084157;28;20471;-56
2021/12/01 00:20:28;;;;;;;42.85;27.70;;;9.00;99.90;;;;;;5088441;28;20077;-55
2021/12/01 00:22:55;;;;;;;43.97;27.73;;;9.00;99.90;;;;;;5084718;28;20075;-55
2021/12/01 00:25:22;;;;;;;47.35;29.00;;;9.00;99.90;;;;;;5085379;28;20371;-53
2021/12/01 00:27:52;;;;;;;47.53;29.20;;;9.10;99.90;;;;;;5087461;28;20047;-56
2021/12/01 00:30:18;;;;;;;47.58;30.77;;;9.00;99.90;;;;;;5089067;28;20056;-56
2021/12/01 00:32:44;;;;;;;46.47;29.77;;;9.00;99.90;;;;;;5083348;28;20048;-56
2021/12/01 00:35:10;;;;;;;43.40;29.85;;;9.00;99.90;;;;;;5081319;28;20051;-56
2021/12/01 00:37:37;;;;;;;48.30;31.52;;;9.00;99.90;;;;;;5082407;28;20136;-56
2021/12/01 00:40:04;;;;;;;40.03;29.63;;;9.10;99.90;;;;;;5083621;28;20436;-56
2021/12/01 00:42:30;;;;;;;45.20;29.08;;;9.10;99.90;;;;;;5086853;28;20470;-57
2021/12/01 00:44:59;;;;;;;44.40;30.20;;;9.10;99.90;;;;;;5083665;28;20553;-56
2021/12/01 00:47:33;;;;;;;46.55;30.33;;;9.10;99.90;;;;;;5084954;28;20048;-57
2021/12/01 00:49:58;;;;;;;47.97;30.05;;;9.10;99.90;;;;;;5082614;28;20051;-57
2021/12/01 00:52:24;;;;;;;47.40;30.35;;;9.10;99.90;;;;;;5078752;28;20044;-57
2021/12/01 00:54:50;;;;;;;41.65;28.38;;;9.10;99.90;;;;;;5076563;28;20044;-56
2021/12/01 00:57:15;;;;;;;41.58;28.73;;;9.10;99.90;;;;;;5084343;28;20438;-57
2021/12/01 00:59:41;;;;;;;41.95;27.38;;;9.10;99.90;;;;;;5084579;28;20044;-56
2021/12/01 01:02:07;;;;;;;41.85;28.08;;;9.10;99.90;;;;;;5081065;28;20052;-57
2021/12/01 01:04:33;;;;;;;39.00;27.35;;;9.10;99.90;;;;;;5080788;28;20041;-56
2021/12/01 01:06:59;;;;;;;36.90;24.80;;;9.10;99.90;;;;;;5084612;28;20046;-57
2021/12/01 01:09:30;;;;;;;42.05;26.48;;;9.10;99.90;;;;;;5081108;28;20056;-55
2021/12/01 01:17:32;;;;;;;38.78;25.40;;;9.20;99.90;;;;;;5081315;28;20138;-56
2021/12/01 01:19:58;;;;;;;43.33;27.30;;;9.20;99.90;;;;;;5085330;28;20555;-57
2021/12/01 01:22:23;;;;;;;40.00;25.98;;;9.20;99.90;;;;;;5083300;28;20052;-57
2021/12/01 01:24:49;;;;;;;42.00;25.15;;;9.20;99.90;;;;;;5081370;28;20045;-57
2021/12/01 01:27:14;;;;;;;40.40;24.85;;;9.20;99.90;;;;;;5082814;28;20053;-57
2021/12/01 01:29:40;;;;;;;41.03;25.20;;;9.20;99.90;;;;;;5084221;28;20371;-55
2021/12/01 01:32:06;;;;;;;41.10;25.25;;;9.20;99.90;;;;;;5087913;28;20039;-56
2021/12/01 01:34:32;;;;;;;40.47;23.80;;;9.20;99.90;;;;;;5082927;28;20077;-56
2021/12/01 01:36:57;;;;;;;36.47;22.73;;;9.20;99.90;;;;;;5082353;28;20052;-57
2021/12/01 01:39:23;;;;;;;32.45;21.88;;;9.30;99.90;;;;;;5081131;28;20048;-56
2021/12/01 01:41:49;;;;;;;29.95;21.42;;;9.30;99.90;;;;;;5080488;28;20044;-57
2021/12/01 01:44:14;;;;;;;34.58;21.05;;;9.30;99.90;;;;;;5079231;28;20115;-56
2021/12/01 01:46:41;;;;;;;29.48;20.35;;;9.30;99.90;;;;;;5078737;28;20031;-56
2021/12/01 01:49:19;;;;;;;28.00;20.45;;;9.30;99.90;;;;;;5080391;28;20050;-57
2021/12/01 01:51:47;;;;;;;31.00;20.45;;;9.40;99.90;;;;;;5082317;28;20040;-55
2021/12/01 01:54:14;;;;;;;28.15;19.77;;;9.40;99.90;;;;;;5062813;28;20048;-57
2021/12/01 01:56:41;;;;;;;24.25;18.70;;;9.40;99.90;;;;;;5077172;28;20041;-54
2021/12/01 01:59:06;;;;;;;23.65;19.38;;;9.40;99.90;;;;;;5084564;28;20051;-56
2021/12/01 02:01:44;;;;;;;27.08;19.88;;;9.40;99.90;;;;;;5083932;28;20127;-57
2021/12/01 02:04:15;;;;;;;25.35;18.10;;;9.40;99.90;;;;;;5088319;28;20062;-56
2021/12/01 02:06:41;;;;;;;24.85;17.23;;;9.40;99.90;;;;;;5077783;28;20044;-56
2021/12/01 02:09:08;;;;;;;24.38;17.17;;;9.50;99.90;;;;;;5085147;28;20081;-55
2021/12/01 02:11:34;;;;;;;23.20;17.20;;;9.50;99.90;;;;;;5079809;28;20093;-56
2021/12/01 02:13:59;;;;;;;26.42;16.30;;;9.50;99.90;;;;;;5084735;28;20036;-57
2021/12/01 02:16:26;;;;;;;19.52;16.02;;;9.50;99.90;;;;;;5079987;28;20031;-57
2021/12/01 02:18:52;;;;;;;22.15;15.40;;;9.50;99.90;;;;;;5084111;28;20040;-55
2021/12/01 02:21:27;;;;;;;22.02;14.80;;;9.50;99.90;;;;;;5061630;28;20051;-56
2021/12/01 02:24:04;;;;;;;20.08;14.38;;;9.50;99.90;;;;;;5062679;28;20521;-56
2021/12/01 02:26:32;;;;;;;19.20;14.32;;;9.50;99.90;;;;;;5079354;28;20502;-56
2021/12/01 02:29:00;;;;;;;19.48;13.90;;;9.50;99.90;;;;;;5082205;28;20071;-55
2021/12/01 02:31:30;;;;;;;15.65;12.02;;;9.50;99.90;;;;;;5077566;28;20056;-56
2021/12/01 02:33:56;;;;;;;14.40;11.82;;;9.50;99.90;;;;;;5081895;28;20475;-55
2021/12/01 02:36:22;;;;;;;17.42;11.43;;;9.50;99.90;;;;;;5082040;28;20070;-56
2021/12/01 02:38:49;;;;;;;14.65;10.82;;;9.50;99.90;;;;;;5076839;28;20479;-56
2021/12/01 02:41:16;;;;;;;12.90;9.35;;;9.50;99.90;;;;;;5081368;28;20044;-56
2021/12/01 02:43:44;;;;;;;13.07;8.82;;;9.50;99.90;;;;;;5083323;28;20044;-56
2021/12/01 02:46:09;;;;;;;12.93;8.07;;;9.60;99.90;;;;;;5081844;28;20090;-57
2021/12/01 02:48:41;;;;;;;12.00;7.95;;;9.60;99.90;;;;;;5081563;28;20033;-55
2021/12/01 02:51:08;;;;;;;9.30;7.75;;;9.60;99.90;;;;;;5083894;28;20040;-56
2021/12/01 02:53:34;;;;;;;9.50;6.82;;;9.60;99.90;;;;;;5080419;28;20074;-57
2021/12/01 02:56:03;;;;;;;8.80;6.80;;;9.60;99.90;;;;;;5080320;28;20032;-57
2021/12/01 02:58:32;;;;;;;9.73;6.55;;;9.60;99.90;;;;;;5081830;28;20040;-57
2021/12/01 03:01:00;;;;;;;9.32;7.00;;;9.60;99.90;;;;;;5084224;28;20101;-57
2021/12/01 03:03:26;;;;;;;7.90;6.43;;;9.60;99.90;;;;;;5076507;28;20150;-57
2021/12/01 03:05:51;;;;;;;6.45;5.35;;;9.60;99.90;;;;;;5081823;28;20079;-56
2021/12/01 03:08:19;;;;;;;6.45;5.28;;;9.60;99.90;;;;;;5078187;28;20104;-55
2021/12/01 03:10:48;;;;;;;7.40;5.78;;;9.60;99.90;;;;;;5077930;28;20041;-56
2021/12/01 03:13:15;;;;;;;8.40;5.95;;;9.60;99.90;;;;;;5082447;28;20044;-56
2021/12/01 03:15:41;;;;;;;8.93;5.78;;;9.60;99.90;;;;;;5085945;28;20464;-58
2021/12/01 03:18:07;;;;;;;6.45;5.32;;;9.60;99.90;;;;;;5085021;28;20040;-57
2021/12/01 03:20:33;;;;;;;8.68;6.00;;;9.60;99.90;;;;;;5082152;28;20036;-56
2021/12/01 03:22:59;;;;;;;6.70;5.68;;;9.60;99.90;;;;;;5084492;28;20062;-56
2021/12/01 03:25:27;;;;;;;10.85;6.25;;;9.60;99.90;;;;;;5080689;28;20036;-56
2021/12/01 03:27:53;;;;;;;8.98;6.95;;;9.60;99.90;;;;;;5077748;28;20079;-56
2021/12/01 03:30:19;;;;;;;7.15;6.45;;;9.60;99.90;;;;;;5082714;28;20033;-55
2021/12/01 03:32:45;;;;;;;8.98;6.97;;;9.60;99.90;;;;;;5076486;28;20033;-57
2021/12/01 03:35:13;;;;;;;7.28;6.57;;;9.60;99.90;;;;;;5081940;28;20093;-56
2021/12/01 03:37:40;;;;;;;;;;;9.60;99.90;;;;;;5083140;28;20051;-56
2021/12/01 03:40:06;;;;;;;7.68;6.55;;;9.60;99.90;;;;;;5081615;28;19949;-56
2021/12/01 03:42:32;;;;;;;8.02;6.80;;;9.60;99.90;;;;;;5079198;28;20119;-56
2021/12/01 03:44:58;;;;;;;6.70;6.10;;;9.60;99.90;;;;;;5086274;28;20143;-56
2021/12/01 03:47:24;;;;;;;7.07;6.38;;;9.60;99.90;;;;;;5081813;28;20880;-54
2021/12/01 03:49:50;;;;;;;7.30;6.70;;;9.60;99.90;;;;;;5082827;28;20049;-56
2021/12/01 03:52:18;;;;;;;6.28;5.68;;;9.60;99.90;;;;;;5077983;28;20727;-56
2021/12/01 03:54:46;;;;;;;6.32;5.72;;;9.60;99.90;;;;;;5061894;28;20401;-58
2021/12/01 03:57:12;;;;;;;6.55;5.38;;;9.60;99.90;;;;;;5075296;28;20037;-56
2021/12/01 03:59:37;;;;;;;6.00;5.40;;;9.50;99.90;;;;;;5078586;28;20067;-56
2021/12/01 04:02:03;;;;;;;5.32;4.82;;;9.50;99.90;;;;;;5080121;28;20044;-57
2021/12/01 04:04:29;;;;;;;5.13;4.65;;;9.50;99.90;;;;;;5076404;28;20453;-57
2021/12/01 04:06:55;;;;;;;5.05;4.53;;;9.50;99.90;;;;;;5079499;28;20170;-57
2021/12/01 04:09:21;;;;;;;4.95;4.45;;;9.50;99.90;;;;;;5082035;28;20855;-56
2021/12/01 04:11:47;;;;;;;4.38;4.03;;;9.50;99.90;;;;;;5079149;28;20443;-55
2021/12/01 04:14:12;;;;;;;5.00;4.50;;;9.50;99.90;;;;;;5077905;28;20079;-57
2021/12/01 04:16:38;;;;;;;4.20;3.90;;;9.40;99.90;;;;;;5080025;28;20052;-57
2021/12/01 04:19:04;;;;;;;3.97;3.67;;;9.40;99.90;;;;;;5075842;28;20751;-56
2021/12/01 04:21:29;;;;;;;4.60;3.70;;;9.40;99.90;;;;;;5079706;28;20044;-55
2021/12/01 04:23:55;;;;;;;4.35;3.80;;;9.40;99.90;;;;;;5076913;28;20460;-56
2021/12/01 04:26:24;;;;;;;3.67;3.38;;;9.40;99.90;;;;;;5080959;28;20044;-57
2021/12/01 04:28:51;;;;;;;3.58;3.28;;;9.40;99.90;;;;;;5083562;28;20189;-56
2021/12/01 04:31:16;;;;;;;3.60;3.30;;;9.40;99.90;;;;;;5078205;28;20071;-56
2021/12/01 04:33:42;;;;;;;2.92;2.70;;;9.40;99.90;;;;;;5077465;28;20036;-56
2021/12/01 04:36:08;;;;;;;3.05;2.83;;;9.40;99.90;;;;;;5083682;28;20071;-56
2021/12/01 04:38:35;;;;;;;2.80;2.60;;;9.40;99.90;;;;;;5078580;28;20393;-57
2021/12/01 04:41:01;;;;;;;2.83;2.33;;;9.30;99.90;;;;;;5080716;28;20043;-56
2021/12/01 04:43:27;;;;;;;2.53;2.33;;;9.30;99.90;;;;;;5082072;28;20061;-55
2021/12/01 04:45:59;;;;;;;2.55;2.35;;;9.30;99.90;;;;;;5080892;28;20133;-56
2021/12/01 04:48:26;;;;;;;2.60;2.40;;;9.30;99.90;;;;;;5074402;28;20598;-56
2021/12/01 04:50:52;;;;;;;2.53;2.25;;;9.20;99.90;;;;;;5079477;28;20082;-57
2021/12/01 04:53:18;;;;;;;2.50;2.28;;;9.20;99.90;;;;;;5077312;28;20560;-55
2021/12/01 04:55:44;;;;;;;3.00;2.13;;;9.20;99.90;;;;;;5086122;28;20089;-56
2021/12/01 04:58:09;;;;;;;2.60;2.40;;;9.20;99.90;;;;;;5088782;28;20065;-57
2021/12/01 05:00:36;;;;;;;2.88;2.33;;;9.20;99.90;;;;;;5082703;28;20048;-57
2021/12/01 05:03:03;;;;;;;2.60;2.40;;;9.20;99.90;;;;;;5087929;28;20044;-56
2021/12/01 05:05:29;;;;;;;2.95;2.47;;;9.10;99.90;;;;;;5081186;28;20032;-56
2021/12/01 05:07:54;;;;;;;5.13;2.83;;;9.20;99.90;;;;;;5083055;28;20046;-57
2021/12/01 05:10:20;;;;;;;2.88;2.60;;;9.10;99.90;;;;;;5081747;28;20048;-56
2021/12/01 05:12:46;;;;;;;3.10;2.80;;;9.10;99.90;;;;;;5084088;28;20036;-57
2021/12/01 05:15:11;;;;;;;3.70;2.90;;;9.10;99.90;;;;;;5081489;28;20556;-56
2021/12/01 05:17:37;;;;;;;3.70;2.97;;;9.10;99.90;;;;;;5089125;28;20214;-57
2021/12/01 05:20:05;;;;;;;3.30;3.00;;;9.10;99.90;;;;;;5074383;28;20089;-56
2021/12/01 05:22:31;;;;;;;2.72;2.53;;;9.00;99.90;;;;;;5084074;28;20055;-57
2021/12/01 05:24:57;;;;;;;3.78;2.97;;;9.00;99.90;;;;;;5086508;28;20158;-55
2021/12/01 05:27:23;;;;;;;3.40;3.10;;;9.00;99.90;;;;;;5085113;28;20119;-56
2021/12/01 05:29:49;;;;;;;3.15;2.72;;;9.00;99.90;;;;;;5082579;28;20465;-53
2021/12/01 05:32:15;;;;;;;3.00;2.80;;;8.90;99.90;;;;;;5085459;28;20032;-56
2021/12/01 05:34:41;;;;;;;2.90;2.60;;;8.90;99.90;;;;;;5083360;28;20044;-55
2021/12/01 05:37:07;;;;;;;3.28;2.90;;;8.90;99.90;;;;;;5069817;28;20077;-55
2021/12/01 05:39:33;;;;;;;2.95;2.63;;;8.90;99.90;;;;;;5078752;28;20086;-54
2021/12/01 05:41:59;;;;;;;2.70;2.50;;;8.90;99.90;;;;;;5079848;28;20032;-57
2021/12/01 05:44:25;;;;;;;4.28;2.90;;;8.90;99.90;;;;;;5078610;28;20112;-56
2021/12/01 05:46:51;;;;;;;3.75;3.08;;;8.80;99.90;;;;;;5078733;28;20072;-56
2021/12/01 05:49:17;;;;;;;3.40;3.13;;;8.80;99.90;;;;;;5086315;28;20363;-56
2021/12/01 05:51:43;;;;;;;3.28;2.80;;;8.80;99.90;;;;;;5081036;28;20040;-57
2021/12/01 05:54:09;;;;;;;3.35;3.05;;;8.80;99.90;;;;;;5085744;28;20050;-55
2021/12/01 05:56:35;;;;;;;3.72;3.10;;;8.80;99.90;;;;;;5080134;28;20110;-56
2021/12/01 05:59:01;;;;;;;3.70;3.17;;;8.80;99.90;;;;;;5084531;28;20515;-57
2021/12/01 06:01:26;;;;;;;3.20;3.00;;;8.70;99.90;;;;;;5083381;28;20390;-57
2021/12/01 06:03:52;;;;;;;3.58;3.25;;;8.70;99.90;;;;;;5083199;28;20047;-56
2021/12/01 06:06:18;;;;;;;3.53;3.22;;;8.70;99.90;;;;;;5081405;28;20524;-56
2021/12/01 06:08:43;;;;;;;3.85;3.55;;;8.70;99.90;;;;;;5079861;28;20163;-56
2021/12/01 06:11:09;;;;;;;3.13;2.83;;;8.70;99.90;;;;;;5080634;28;20040;-55
2021/12/01 06:13:36;;;;;;;3.38;3.08;;;8.70;99.90;;;;;;5060176;28;20063;-56
2021/12/01 06:16:03;;;;;;;3.70;3.40;;;8.60;99.90;;;;;;5081206;28;20124;-55
2021/12/01 06:18:30;;;;;;;3.28;3.00;;;8.60;99.90;;;;;;5077214;28;20048;-56
2021/12/01 06:20:56;;;;;;;3.78;3.47;;;8.70;99.90;;;;;;5081310;28;20039;-57
2021/12/01 06:23:22;;;;;;;3.42;3.13;;;8.70;99.90;;;;;;5080768;28;20236;-56
2021/12/01 06:25:48;;;;;;;3.58;3.28;;;8.60;99.90;;;;;;5083706;28;20485;-56
2021/12/01 06:28:14;;;;;;;3.90;3.42;;;8.60;99.90;;;;;;5082749;28;20098;-56
2021/12/01 06:30:40;;;;;;;4.40;3.70;;;8.60;99.90;;;;;;5083212;28;20055;-55
2021/12/01 06:33:06;;;;;;;4.07;3.78;;;8.60;99.90;;;;;;5076261;28;20036;-55
2021/12/01 06:35:33;;;;;;;4.03;3.65;;;8.60;99.90;;;;;;5085150;28;20115;-56
2021/12/01 06:37:59;;;;;;;3.90;3.60;;;8.60;99.90;;;;;;5077666;28;20051;-56
2021/12/01 06:40:26;;;;;;;4.03;3.50;;;8.60;99.90;;;;;;5078435;28;20048;-56
2021/12/01 06:42:51;;;;;;;4.38;3.97;;;8.60;99.90;;;;;;5081891;28;20069;-57
2021/12/01 06:45:17;;;;;;;3.60;3.30;;;8.50;99.90;;;;;;5059817;28;20043;-56
2021/12/01 06:47:45;;;;;;;3.30;3.00;;;8.60;99.90;;;;;;5058533;28;20048;-57
2021/12/01 06:50:11;;;;;;;3.45;3.15;;;8.50;99.90;;;;;;5082053;28;20044;-55
2021/12/01 06:52:40;;;;;;;4.63;3.30;;;8.50;99.90;;;;;;5066069;28;20052;-56
2021/12/01 06:55:09;;;;;;;3.65;3.13;;;8.50;99.90;;;;;;5080375;28;20119;-56
2021/12/01 06:57:34;;;;;;;3.42;3.13;;;8.50;99.90;;;;;;5079460;28;20068;-56
2021/12/01 07:00:00;;;;;;;3.45;3.15;;;8.50;99.90;;;;;;5081156;28;20090;-55
2021/12/01 07:02:27;;;;;;;3.30;3.10;;;8.50;99.90;;;;;;5079394;28;20040;-56
2021/12/01 07:04:52;;;;;;;4.35;3.00;;;8.50;99.90;;;;;;5082895;28;20033;-57
2021/12/01 07:07:18;;;;;;;2.80;2.60;;;8.50;99.90;;;;;;5082620;28;20059;-57
2021/12/01 07:09:45;;;;;;;5.22;3.03;;;8.50;99.90;;;;;;5081469;28;20135;-56
2021/12/01 07:12:12;;;;;;;3.55;2.58;;;8.50;99.90;;;;;;5078305;28;20098;-56
2021/12/01 07:14:38;;;;;;;2.92;2.72;;;8.50;99.90;;;;;;5079523;28;20387;-56
2021/12/01 07:17:06;;;;;;;3.35;2.30;;;8.50;99.90;;;;;;5078281;28;20047;-55
2021/12/01 07:19:31;;;;;;;2.67;2.47;;;8.50;99.90;;;;;;5083180;28;20048;-56
2021/12/01 07:21:57;;;;;;;3.03;2.83;;;8.50;99.90;;;;;;5081759;28;20424;-56
2021/12/01 07:24:22;;;;;;;2.90;2.70;;;8.50;99.90;;;;;;5080829;28;20040;-56
2021/12/01 07:26:48;;;;;;;2.70;2.50;;;8.50;99.90;;;;;;5081335;28;20044;-57
2021/12/01 07:29:15;;;;;;;3.22;2.92;;;8.40;99.90;;;;;;5076518;28;20041;-56
2021/12/01 07:31:41;;;;;;;2.92;2.22;;;8.40;99.90;;;;;;5078644;28;20041;-56
2021/12/01 07:34:06;;;;;;;2.70;2.50;;;8.40;99.90;;;;;;5080797;28;20386;-56
2021/12/01 07:36:32;;;;;;;2.60;2.38;;;8.50;99.90;;;;;;5080588;28;20158;-56
2021/12/01 07:38:59;;;;;;;2.53;2.33;;;8.50;99.90;;;;;;5077270;28;20040;-56
2021/12/01 07:41:25;;;;;;;2.67;2.47;;;8.40;99.90;;;;;;5082891;28;20044;-57
2021/12/01 07:43:51;;;;;;;2.30;2.10;;;8.50;99.90;;;;;;5079011;28;20078;-56
2021/12/01 07:46:18;;;;;;;2.50;2.30;;;8.40;99.90;;;;;;5077459;28;20056;-56
2021/12/01 07:48:44;;;;;;;2.80;2.10;;;8.40;99.90;;;;;;5055761;28;20493;-57
2021/12/01 07:51:09;;;;;;;2.15;2.05;;;8.40;99.90;;;;;;5083067;28;20062;-55
2021/12/01 07:53:35;;;;;;;2.13;2.00;;;8.40;99.90;;;;;;5081342;28;20121;-56
2021/12/01 07:56:02;;;;;;;2.30;2.08;;;8.40;99.90;;;;;;5076256;28;20537;-55
2021/12/01 07:58:29;;;;;;;2.58;2.38;;;8.50;99.90;;;;;;5080043;28;20051;-55
2021/12/01 08:00:54;;;;;;;2.80;2.60;;;8.50;99.90;;;;;;5077877;28;20455;-56
2021/12/01 08:03:20;;;;;;;2.40;2.20;;;8.50;99.90;;;;;;5065157;28;20064;-56
2021/12/01 08:05:46;;;;;;;2.88;2.30;;;8.50;99.90;;;;;;5079609;28;20051;-57
2021/12/01 08:08:11;;;;;;;2.53;2.33;;;8.50;99.90;;;;;;5077325;28;20098;-57
2021/12/01 08:10:37;;;;;;;2.70;2.20;;;8.50;99.90;;;;;;5082475;28;20044;-58
2021/12/01 08:13:04;;;;;;;2.40;2.20;;;8.50;99.90;;;;;;5078332;28;20037;-57
2021/12/01 08:15:30;;;;;;;2.80;2.60;;;8.50;99.90;;;;;;5079113;28;20537;-57
2021/12/01 08:17:56;;;;;;;4.85;2.20;;;8.50;99.90;;;;;;5085577;28;20103;-57
2021/12/01 08:20:22;;;;;;;2.70;2.50;;;8.50;99.90;;;;;;5055897;28;20048;-58
2021/12/01 08:22:47;;;;;;;2.92;2.53;;;8.50;99.90;;;;;;5085777;28;20058;-57
2021/12/01 08:25:14;;;;;;;3.17;2.30;;;8.60;99.90;;;;;;5081509;28;20041;-58
2021/12/01 08:27:40;;;;;;;3.13;2.50;;;8.60;99.90;;;;;;5082743;28;20063;-58
2021/12/01 08:30:07;;;;;;;2.80;2.60;;;8.60;99.90;;;;;;5089796;28;20474;-56
2021/12/01 08:32:34;;;;;;;4.70;2.75;;;8.60;99.90;;;;;;5082132;28;20036;-57
2021/12/01 08:34:59;;;;;;;2.88;2.67;;;8.70;99.90;;;;;;5087986;28;20366;-58
2021/12/01 08:37:25;;;;;;;4.30;2.83;;;8.70;99.90;;;;;;5084452;28;20063;-58
2021/12/01 08:39:51;;;;;;;3.20;3.00;;;8.80;99.90;;;;;;5083864;28;20059;-58
2021/12/01 08:42:19;;;;;;;3.50;3.13;;;8.80;99.90;;;;;;5093046;28;20048;-58
2021/12/01 08:44:45;;;;;;;3.83;3.50;;;8.80;99.90;;;;;;5080531;28;20548;-57
2021/12/01 08:47:15;;;;;;;3.30;3.00;;;8.90;99.90;;;;;;5085761;28;20047;-57
2021/12/01 08:49:41;;;;;;;3.50;3.30;;;;;;;;;;5091181;28;20048;-58
2021/12/01 08:52:07;;;;;;;4.03;3.72;;;9.00;99.90;;;;;;5080309;28;20503;-56
2021/12/01 08:54:33;;;;;;;4.32;3.85;;;8.90;99.90;;;;;;5085361;28;20055;-57
2021/12/01 08:56:58;;;;;;;4.38;4.00;;;9.00;99.90;;;;;;5085447;28;20047;-57
2021/12/01 08:59:24;;;;;;;6.82;3.97;;;8.90;99.90;;;;;;5087161;28;20555;-58
2021/12/01 09:01:50;;;;;;;4.40;4.00;;;8.90;99.90;;;;;;5092203;28;20071;-57
2021/12/01 09:04:15;;;;;;;5.63;4.05;;;9.00;99.90;;;;;;5091882;28;20032;-58
2021/12/01 09:06:41;;;;;;;4.55;4.15;;;9.00;99.90;;;;;;5091306;28;20040;-57
2021/12/01 09:09:07;;;;;;;7.18;4.75;;;9.00;99.90;;;;;;5091136;28;20051;-58
2021/12/01 09:11:33;;;;;;;8.35;4.93;;;9.00;99.90;;;;;;5086944;28;20450;-57
2021/12/01 09:13:59;;;;;;;5.80;4.88;;;8.90;99.90;;;;;;5071631;28;20048;-56
2021/12/01 09:16:25;;;;;;;6.05;5.45;;;8.90;99.90;;;;;;5086827;28;20486;-57
2021/12/01 09:18:51;;;;;;;4.35;3.92;;;9.00;99.90;;;;;;5092742;28;20077;-57
2021/12/01 09:21:18;;;;;;;6.57;3.10;;;8.90;99.90;;;;;;5083142;28;20101;-58
2021/12/01 09:23:44;;;;;;;5.15;2.65;;;8.90;99.90;;;;;;5088527;28;20161;-56
2021/12/01 09:26:10;;;;;;;4.97;2.78;;;9.00;99.90;;;;;;5090126;28;20040;-55
2021/12/01 09:28:35;;;;;;;7.82;2.33;;;9.00;99.90;;;;;;5088533;28;20040;-57
2021/12/01 09:31:01;;;;;;;8.85;2.25;;;9.00;99.90;;;;;;5084167;28;20123;-57
2021/12/01 09:33:28;;;;;;;9.35;2.35;;;9.00;99.90;;;;;;5090358;28;20089;-55
2021/12/01 09:35:54;;;;;;;6.57;1.90;;;9.00;99.90;;;;;;5090388;28;20466;-55
2021/12/01 09:38:20;;;;;;;8.55;2.35;;;9.00;99.90;;;;;;5090742;28;20253;-55
2021/12/01 09:40:51;;;;;;;8.95;2.20;;;9.00;99.90;;;;;;5080720;28;20474;-55
2021/12/01 09:43:18;;;;;;;7.63;1.80;;;8.90;99.90;;;;;;5088974;28;20131;-55
2021/12/01 09:45:45;;;;;;;5.78;1.58;;;8.90;99.90;;;;;;5087659;28;20072;-56
2021/12/01 09:48:10;;;;;;;8.80;1.73;;;8.90;99.90;;;;;;5086026;28;20509;-55
2021/12/01 09:50:36;;;;;;;8.98;2.15;;;9.00;99.90;;;;;;5081256;28;20041;-55
2021/12/01 09:53:03;;;;;;;6.55;1.55;;;9.10;99.90;;;;;;5082056;28;20032;-55
2021/12/01 09:55:28;;;;;;;9.00;1.58;;;9.30;99.90;;;;;;5083039;28;20052;-56
2021/12/01 09:58:05;;;;;;;8.10;1.77;;;9.40;99.90;;;;;;5089107;28;20374;-53
2021/12/01 10:00:34;;;;;;;7.97;1.40;;;9.50;99.90;;;;;;5086814;28;20327;-56
2021/12/01 10:02:59;;;;;;;8.30;1.75;;;9.40;99.90;;;;;;5087007;28;20052;-55
2021/12/01 10:05:46;;;;;;;10.32;1.90;;;9.50;99.90;;;;;;5084267;28;20040;-56
2021/12/01 10:08:23;;;;;;;8.23;1.90;;;9.40;99.90;;;;;;5080866;28;20113;-56
2021/12/01 10:10:50;;;;;;;8.53;1.77;;;9.40;99.90;;;;;;5087644;28;20514;-56
2021/12/01 10:13:24;;;;;;;7.47;1.75;;;9.40;99.90;;;;;;5090764;28;20080;-55
2021/12/01 10:15:52;;;;;;;8.00;1.73;;;9.30;99.90;;;;;;5088146;28;20115;-56
2021/12/01 10:18:18;;;;;;;;;;;9.30;99.90;;;;;;5090125;28;20039;-57
2021/12/01 10:20:56;;;;;;;7.47;1.25;;;9.30;99.90;;;;;;5084953;28;19928;-57
2021/12/01 10:23:23;;;;;;;7.60;1.35;;;9.30;99.90;;;;;;5082133;28;20474;-57
2021/12/01 10:25:48;;;;;;;5.72;1.50;;;9.30;99.90;;;;;;5075686;28;20131;-56
2021/12/01 10:28:40;;;;;;;9.02;1.55;;;9.20;99.90;;;;;;5082619;28;20175;-57
2021/12/01 10:31:06;;;;;;;7.88;1.42;;;9.20;99.90;;;;;;5083021;28;20462;-55
2021/12/01 10:33:31;;;;;;;8.05;1.55;;;9.10;99.90;;;;;;5082395;28;20040;-57
2021/12/01 10:36:01;;;;;;;10.68;1.40;;;9.10;99.90;;;;;;5086329;28;20040;-54
2021/12/01 10:38:32;;;;;;;6.70;1.23;;;9.10;99.90;;;;;;5090378;28;20036;-56
2021/12/01 10:41:07;;;;;;;7.95;1.10;;;9.10;99.90;;;;;;5083104;28;20048;-57
2021/12/01 10:43:45;;;;;;;6.45;1.20;;;9.10;99.90;;;;;;5081066;28;20040;-56
2021/12/01 10:46:13;;;;;;;;;;;9.10;99.90;;;;;;5084398;28;20499;-55
2021/12/01 10:48:40;;;;;;;7.18;1.20;;;9.10;99.90;;;;;;5081737;28;19930;-56
2021/12/01 10:51:11;;;;;;;7.30;1.25;;;9.00;99.90;;;;;;5084936;28;20120;-56
2021/12/01 10:53:37;;;;;;;7.78;1.30;;;9.00;99.90;;;;;;5078795;28;20504;-56
2021/12/01 10:56:05;;;;;;;10.23;1.60;;;9.00;99.90;;;;;;5087354;28;20059;-54
2021/12/01 10:58:41;;;;;;;11.55;1.73;;;9.00;99.90;;;;;;5085112;28;20047;-56
2021/12/01 11:01:19;;;;;;;6.22;1.50;;;9.10;99.90;;;;;;5089064;28;20044;-56
2021/12/01 11:03:45;;;;;;;7.32;1.55;;;9.10;99.90;;;;;;5083277;28;20147;-56
2021/12/01 11:06:12;;;;;;;7.30;1.55;;;9.10;99.90;;;;;;5090424;28;20039;-56
2021/12/01 11:08:41;;;;;;;9.25;1.52;;;9.00;99.90;;;;;;5079377;28;20059;-57
2021/12/01 11:11:10;;;;;;;8.50;1.80;;;9.00;99.90;;;;;;5083165;28;20116;-57
2021/12/01 11:13:38;;;;;;;7.57;1.52;;;9.00;99.90;;;;;;5086959;28;20368;-56
2021/12/01 11:16:07;;;;;;;12.82;2.13;;;9.00;99.90;;;;;;5084113;28;20473;-57
2021/12/01 11:18:34;;;;;;;;;;;9.00;99.90;;;;;;5081958;28;20040;-57
2021/12/01 11:21:10;;;;;;;8.07;1.45;;;9.10;99.90;;;;;;5084716;28;19920;-56
2021/12/01 11:23:45;;;;;;;10.02;2.03;;;9.10;99.90;;;;;;5077028;28;20118;-55
2021/12/01 11:26:13;;;;;;;11.48;1.90;;;9.10;99.90;;;;;;5081717;28;20454;-56
2021/12/01 11:28:47;;;;;;;10.05;1.83;;;9.10;99.90;;;;;;5087110;28;20504;-56
2021/12/01 11:31:21;;;;;;;10.27;2.05;;;9.20;99.90;;;;;;5085648;28;20139;-57
2021/12/01 11:33:48;;;;;;;9.07;2.30;;;9.20;99.90;;;;;;5081507;28;20078;-55
2021/12/01 11:36:17;;;;;;;8.68;1.60;;;9.30;99.90;;;;;;5079015;28;20078;-56
2021/12/01 11:38:47;;;;;;;11.48;2.05;;;9.30;99.90;;;;;;5086349;28;20150;-57
2021/12/01 11:41:13;;;;;;;13.50;2.70;;;9.40;99.90;;;;;;5065335;28;20048;-56
2021/12/01 11:43:38;;;;;;;8.35;1.90;;;9.40;99.90;;;;;;5085139;28;20048;-57
2021/12/01 11:46:07;;;;;;;14.27;2.80;;;9.40;99.90;;;;;;5084908;28;20134;-57
2021/12/01 11:48:37;;;;;;;11.98;2.00;;;9.40;99.90;;;;;;5086842;28;20108;-57
2021/12/01 11:51:24;;;;;;;9.38;1.90;;;9.40;99.90;;;;;;5081949;28;20342;-57
2021/12/01 11:54:03;;;;;;;11.98;2.30;;;9.40;99.90;;;;;;5080522;28;20052;-55
2021/12/01 11:56:35;;;;;;;10.73;2.22;;;9.40;99.90;;;;;;5079865;28;20071;-55
2021/12/01 11:59:15;;;;;;;14.60;2.60;;;9.40;99.90;;;;;;5079900;28;20360;-57
2021/12/01 12:01:47;;;;;;;12.05;2.53;;;9.30;99.90;;;;;;5068825;28;20044;-57
2021/12/01 12:04:13;;;;;;;11.75;2.45;;;9.30;99.90;;;;;;5082446;28;20048;-57
2021/12/01 12:06:48;;;;;;;18.05;2.58;;;9.40;99.90;;;;;;5090551;28;20381;-56
2021/12/01 12:09:18;;;;;;;14.27;2.47;;;9.40;99.90;;;;;;5083378;28;20095;-57
2021/12/01 12:11:45;;;;;;;8.98;1.92;;;9.40;99.90;;;;;;5082299;28;20044;-55
2021/12/01 12:14:25;;;;;;;19.08;3.20;;;9.50;99.90;;;;;;5087334;28;20066;-57
2021/12/01 12:17:07;;;;;;;13.65;2.60;;;9.50;99.90;;;;;;5089830;28;20040;-57
2021/12/01 12:19:49;;;;;;;13.38;2.75;;;9.60;99.90;;;;;;5081466;28;20045;-57
2021/12/01 12:22:19;;;;;;;10.70;2.58;;;9.50;99.90;;;;;;5080831;28;20083;-57
2021/12/01 12:24:52;;;;;;;16.23;2.72;;;9.40;99.90;;;;;;5091959;28;20066;-57
2021/12/01 12:27:30;;;;;;;11.80;2.78;;;9.30;99.90;;;;;;5087005;28;20417;-57
2021/12/01 12:29:57;;;;;;;;;;;9.30;99.90;;;;;;5090933;28;20050;-56
2021/12/01 12:32:24;;;;;;;13.67;2.20;;;9.20;99.90;;;;;;5087741;28;19927;-55
2021/12/01 12:34:56;;;;;;;11.18;2.58;;;9.10;99.90;;;;;;5084839;28;20165;-57
2021/12/01 12:37:28;;;;;;;15.68;2.90;;;9.10;99.90;;;;;;5083847;28;20115;-57
2021/12/01 12:39:56;;;;;;;16.30;2.58;;;9.00;99.90;;;;;;5083956;28;20040;-56
2021/12/01 12:42:22;;;;;;;19.33;2.80;;;9.00;99.90;;;;;;5092008;28;20067;-57
2021/12/01 12:44:57;;;;;;;11.32;2.17;;;8.90;99.90;;;;;;5078241;28;20045;-56
2021/12/01 12:47:24;;;;;;;18.30;2.90;;;9.00;99.90;;;;;;5080317;28;20036;-56
2021/12/01 12:49:55;;;;;;;13.60;2.85;;;8.90;99.90;;;;;;5087259;28;20036;-56
2021/12/01 12:52:26;;;;;;;12.27;2.42;;;8.90;99.90;;;;;;5090285;28;20121;-56
2021/12/01 12:55:30;;;;;;;16.17;2.45;;;8.80;99.90;;;;;;5090336;28;20165;-55
2021/12/01 12:58:05;;;;;;;13.73;2.60;;;8.80;99.90;;;;;;5086244;28;20051;-55
2021/12/01 13:00:44;;;;;;;14.65;2.75;;;8.70;99.90;;;;;;5084949;28;20163;-56